sensor_id;sensor_type;location;lat;lon;timestamp;pressure;altitude;pressure_sealevel;temperature;humidity
64211;BME280;50528;48.514;14.394;2023-05-23T00:00:18;93498.38;;;13.70;70.08
64211;BME280;50528;48.514;14.394;2023-05-23T00:01:12;93496.63;;;13.68;70.07
64211;BME280;50528;48.514;14.394;2023-05-23T00:01:47;93498.38;;;13.68;70.12
64211;BME280;50528;48.514;14.394;2023-05-23T00:02:22;93496.53;;;13.68;70.08
64211;BME280;50528;48.514;14.394;2023-05-23T00:02:58;93496.68;;;13.68;69.96
64211;BME280;50528;48.514;14.394;2023-05-23T00:03:37;93494.31;;;13.68;69.84
64211;BME280;50528;48.514;14.394;2023-05-23T00:04:12;93493.38;;;13.66;69.63
64211;BME280;50528;48.514;14.394;2023-05-23T00:04:49;93495.03;;;13.63;69.67
64211;BME280;50528;48.514;14.394;2023-05-23T00:05:24;93494.66;;;13.63;69.50
64211;BME280;50528;48.514;14.394;2023-05-23T00:06:00;93494.82;;;13.62;69.57
64211;BME280;50528;48.514;14.394;2023-05-23T00:06:34;93483.89;;;13.55;69.47
64211;BME280;50528;48.514;14.394;2023-05-23T00:07:11;93493.21;;;13.59;69.25
64211;BME280;50528;48.514;14.394;2023-05-23T00:07:45;93495.50;;;13.56;69.13
64211;BME280;50528;48.514;14.394;2023-05-23T00:08:19;93494.70;;;13.56;69.20
64211;BME280;50528;48.514;14.394;2023-05-23T00:08:53;93495.08;;;13.56;69.10
64211;BME280;50528;48.514;14.394;2023-05-23T00:09:27;93488.82;;;13.54;68.95
64211;BME280;50528;48.514;14.394;2023-05-23T00:10:12;93489.71;;;13.53;68.92
64211;BME280;50528;48.514;14.394;2023-05-23T00:10:59;93486.39;;;13.50;69.08
64211;BME280;50528;48.514;14.394;2023-05-23T00:12:35;93491.25;;;13.40;68.95
64211;BME280;50528;48.514;14.394;2023-05-23T00:14:11;93489.65;;;13.34;68.93
64211;BME280;50528;48.514;14.394;2023-05-23T00:15:58;93486.89;;;13.27;68.87
64211;BME280;50528;48.514;14.394;2023-05-23T00:17:29;93491.66;;;13.24;68.99
64211;BME280;50528;48.514;14.394;2023-05-23T00:18:54;93484.86;;;13.20;69.13
64211;BME280;50528;48.514;14.394;2023-05-23T00:20:24;93489.02;;;13.21;69.21
64211;BME280;50528;48.514;14.394;2023-05-23T00:21:56;93488.67;;;13.19;69.46
64211;BME280;50528;48.514;14.394;2023-05-23T00:23:30;93488.10;;;13.18;69.17
64211;BME280;50528;48.514;14.394;2023-05-23T00:25:08;93486.57;;;13.16;69.51
64211;BME280;50528;48.514;14.394;2023-05-23T00:26:38;93485.36;;;13.16;69.42
64211;BME280;50528;48.514;14.394;2023-05-23T00:28:03;93488.63;;;13.14;69.60
64211;BME280;50528;48.514;14.394;2023-05-23T00:28:38;93489.48;;;13.16;69.84
64211;BME280;50528;48.514;14.394;2023-05-23T00:29:12;93490.32;;;13.19;69.90
64211;BME280;50528;48.514;14.394;2023-05-23T00:29:49;93490.19;;;13.20;70.03
64211;BME280;50528;48.514;14.394;2023-05-23T00:30:22;93486.07;;;13.21;70.15
64211;BME280;50528;48.514;14.394;2023-05-23T00:30:56;93486.34;;;13.22;70.21
64211;BME280;50528;48.514;14.394;2023-05-23T00:31:30;93490.29;;;13.22;70.16
64211;BME280;50528;48.514;14.394;2023-05-23T00:32:04;93490.92;;;13.23;70.21
64211;BME280;50528;48.514;14.394;2023-05-23T00:32:37;93489.55;;;13.24;70.27
64211;BME280;50528;48.514;14.394;2023-05-23T00:33:12;93485.70;;;13.24;70.28
64211;BME280;50528;48.514;14.394;2023-05-23T00:33:48;93487.77;;;13.22;70.24
64211;BME280;50528;48.514;14.394;2023-05-23T00:34:27;93487.64;;;13.24;70.39
64211;BME280;50528;48.514;14.394;2023-05-23T00:35:01;93486.65;;;13.23;70.45
64211;BME280;50528;48.514;14.394;2023-05-23T00:35:35;93487.02;;;13.24;70.42
64211;BME280;50528;48.514;14.394;2023-05-23T00:36:09;93490.66;;;13.24;70.39
64211;BME280;50528;48.514;14.394;2023-05-23T00:36:43;93490.34;;;13.25;70.43
64211;BME280;50528;48.514;14.394;2023-05-23T00:37:21;93490.65;;;13.25;70.44
64211;BME280;50528;48.514;14.394;2023-05-23T00:37:55;93492.23;;;13.25;70.51
64211;BME280;50528;48.514;14.394;2023-05-23T00:38:28;93488.16;;;13.25;70.41
64211;BME280;50528;48.514;14.394;2023-05-23T00:39:02;93490.69;;;13.26;70.61
64211;BME280;50528;48.514;14.394;2023-05-23T00:39:37;93489.31;;;13.25;70.59
64211;BME280;50528;48.514;14.394;2023-05-23T00:40:12;93487.59;;;13.25;70.84
64211;BME280;50528;48.514;14.394;2023-05-23T00:40:46;93488.81;;;13.25;70.49
64211;BME280;50528;48.514;14.394;2023-05-23T00:41:20;93489.54;;;13.25;70.60
64211;BME280;50528;48.514;14.394;2023-05-23T00:41:54;93493.13;;;13.25;70.65
64211;BME280;50528;48.514;14.394;2023-05-23T00:42:29;93487.32;;;13.25;70.60
64211;BME280;50528;48.514;14.394;2023-05-23T00:43:05;93490.63;;;13.27;70.77
64211;BME280;50528;48.514;14.394;2023-05-23T00:43:41;93488.73;;;13.26;70.76
64211;BME280;50528;48.514;14.394;2023-05-23T00:44:15;93491.59;;;13.26;70.84
64211;BME280;50528;48.514;14.394;2023-05-23T00:44:51;93492.73;;;13.27;70.84
64211;BME280;50528;48.514;14.394;2023-05-23T00:45:25;93490.84;;;13.27;70.86
64211;BME280;50528;48.514;14.394;2023-05-23T00:46:00;93491.27;;;13.27;70.83
64211;BME280;50528;48.514;14.394;2023-05-23T00:46:35;93489.67;;;13.27;70.89
64211;BME280;50528;48.514;14.394;2023-05-23T00:47:09;93490.42;;;13.27;70.87
64211;BME280;50528;48.514;14.394;2023-05-23T00:47:47;93493.80;;;13.26;70.86
64211;BME280;50528;48.514;14.394;2023-05-23T00:48:21;93494.91;;;13.26;70.90
64211;BME280;50528;48.514;14.394;2023-05-23T00:48:56;93494.33;;;13.26;71.05
64211;BME280;50528;48.514;14.394;2023-05-23T00:49:30;93495.85;;;13.27;70.99
64211;BME280;50528;48.514;14.394;2023-05-23T00:50:07;93496.44;;;13.26;71.01
64211;BME280;50528;48.514;14.394;2023-05-23T00:50:42;93492.86;;;13.26;71.00
64211;BME280;50528;48.514;14.394;2023-05-23T00:51:17;93495.54;;;13.26;71.04
64211;BME280;50528;48.514;14.394;2023-05-23T00:51:51;93496.08;;;13.26;70.90
64211;BME280;50528;48.514;14.394;2023-05-23T00:52:25;93494.42;;;13.27;70.88
64211;BME280;50528;48.514;14.394;2023-05-23T00:53:00;93493.59;;;13.27;70.92
64211;BME280;50528;48.514;14.394;2023-05-23T00:53:34;93497.86;;;13.26;70.85
64211;BME280;50528;48.514;14.394;2023-05-23T00:54:08;93494.64;;;13.26;70.91
64211;BME280;50528;48.514;14.394;2023-05-23T00:54:43;93492.27;;;13.26;71.04
64211;BME280;50528;48.514;14.394;2023-05-23T00:55:17;93495.65;;;13.26;70.96
64211;BME280;50528;48.514;14.394;2023-05-23T00:55:50;93494.06;;;13.25;71.00
64211;BME280;50528;48.514;14.394;2023-05-23T00:56:25;93494.49;;;13.24;70.98
64211;BME280;50528;48.514;14.394;2023-05-23T00:56:59;93495.03;;;13.25;70.95
64211;BME280;50528;48.514;14.394;2023-05-23T00:57:35;93489.07;;;13.21;70.97
64211;BME280;50528;48.514;14.394;2023-05-23T00:58:13;93501.15;;;13.25;71.01
64211;BME280;50528;48.514;14.394;2023-05-23T00:58:49;93498.74;;;13.24;70.93
64211;BME280;50528;48.514;14.394;2023-05-23T00:59:24;93495.67;;;13.23;70.96
64211;BME280;50528;48.514;14.394;2023-05-23T01:00:02;93499.47;;;13.23;71.00
64211;BME280;50528;48.514;14.394;2023-05-23T01:00:37;93498.46;;;13.23;70.93
64211;BME280;50528;48.514;14.394;2023-05-23T01:01:14;93500.31;;;13.22;70.82
64211;BME280;50528;48.514;14.394;2023-05-23T01:01:50;93500.31;;;13.22;71.03
64211;BME280;50528;48.514;14.394;2023-05-23T01:02:26;93500.37;;;13.21;70.95
64211;BME280;50528;48.514;14.394;2023-05-23T01:03:08;93501.84;;;13.21;71.00
64211;BME280;50528;48.514;14.394;2023-05-23T01:03:49;93503.04;;;13.17;70.93
64211;BME280;50528;48.514;14.394;2023-05-23T01:04:24;93503.19;;;13.15;71.03
64211;BME280;50528;48.514;14.394;2023-05-23T01:04:59;93500.55;;;13.15;70.96
64211;BME280;50528;48.514;14.394;2023-05-23T01:05:34;93499.93;;;13.14;70.77
64211;BME280;50528;48.514;14.394;2023-05-23T01:06:08;93495.98;;;13.09;70.76
64211;BME280;50528;48.514;14.394;2023-05-23T01:06:42;93500.50;;;13.11;70.55
64211;BME280;50528;48.514;14.394;2023-05-23T01:07:21;93502.34;;;13.10;70.57
64211;BME280;50528;48.514;14.394;2023-05-23T01:07:55;93504.35;;;13.08;70.43
64211;BME280;50528;48.514;14.394;2023-05-23T01:08:29;93499.56;;;13.07;70.30
64211;BME280;50528;48.514;14.394;2023-05-23T01:09:03;93504.89;;;13.06;70.32
64211;BME280;50528;48.514;14.394;2023-05-23T01:09:37;93500.10;;;13.06;70.36
64211;BME280;50528;48.514;14.394;2023-05-23T01:10:16;93501.88;;;13.05;70.49
64211;BME280;50528;48.514;14.394;2023-05-23T01:10:51;93499.46;;;13.05;70.45
64211;BME280;50528;48.514;14.394;2023-05-23T01:11:39;93501.63;;;13.05;70.51
64211;BME280;50528;48.514;14.394;2023-05-23T01:13:05;93499.98;;;13.02;70.42
64211;BME280;50528;48.514;14.394;2023-05-23T01:13:52;93499.80;;;13.00;70.49
64211;BME280;50528;48.514;14.394;2023-05-23T01:15:05;93503.65;;;12.98;70.49
64211;BME280;50528;48.514;14.394;2023-05-23T01:15:50;93502.30;;;12.93;70.50
64211;BME280;50528;48.514;14.394;2023-05-23T01:17:12;93501.09;;;12.91;70.61
64211;BME280;50528;48.514;14.394;2023-05-23T01:18:36;93499.26;;;12.89;70.31
64211;BME280;50528;48.514;14.394;2023-05-23T01:20:06;93499.90;;;12.84;70.21
64211;BME280;50528;48.514;14.394;2023-05-23T01:20:51;93497.11;;;12.82;70.26
64211;BME280;50528;48.514;14.394;2023-05-23T01:21:27;93499.02;;;12.81;70.20
64211;BME280;50528;48.514;14.394;2023-05-23T01:22:23;93500.86;;;12.81;70.23
64211;BME280;50528;48.514;14.394;2023-05-23T01:24:54;93499.50;;;12.74;70.29
64211;BME280;50528;48.514;14.394;2023-05-23T01:27:12;93502.63;;;12.67;70.50
64211;BME280;50528;48.514;14.394;2023-05-23T01:27:56;93502.78;;;12.66;70.67
64211;BME280;50528;48.514;14.394;2023-05-23T01:28:36;93505.05;;;12.67;70.73
64211;BME280;50528;48.514;14.394;2023-05-23T01:29:13;93502.84;;;12.67;70.93
64211;BME280;50528;48.514;14.394;2023-05-23T01:29:59;93503.94;;;12.68;70.99
64211;BME280;50528;48.514;14.394;2023-05-23T01:30:38;93503.90;;;12.68;71.18
64211;BME280;50528;48.514;14.394;2023-05-23T01:31:13;93506.37;;;12.69;71.27
64211;BME280;50528;48.514;14.394;2023-05-23T01:31:52;93500.73;;;12.66;71.36
64211;BME280;50528;48.514;14.394;2023-05-23T01:32:28;93507.53;;;12.70;71.32
64211;BME280;50528;48.514;14.394;2023-05-23T01:33:04;93507.69;;;12.70;71.36
64211;BME280;50528;48.514;14.394;2023-05-23T01:33:41;93505.64;;;12.70;71.45
64211;BME280;50528;48.514;14.394;2023-05-23T01:34:18;93505.06;;;12.70;71.43
64211;BME280;50528;48.514;14.394;2023-05-23T01:34:52;93504.59;;;12.70;71.46
64211;BME280;50528;48.514;14.394;2023-05-23T01:35:27;93501.00;;;12.69;71.50
64211;BME280;50528;48.514;14.394;2023-05-23T01:36:01;93502.79;;;12.70;71.61
64211;BME280;50528;48.514;14.394;2023-05-23T01:36:42;93503.63;;;12.72;71.57
64211;BME280;50528;48.514;14.394;2023-05-23T01:37:16;93506.37;;;12.72;71.67
64211;BME280;50528;48.514;14.394;2023-05-23T01:37:53;93503.09;;;12.73;71.67
64211;BME280;50528;48.514;14.394;2023-05-23T01:38:28;93503.20;;;12.74;71.79
64211;BME280;50528;48.514;14.394;2023-05-23T01:39:03;93502.30;;;12.76;71.81
64211;BME280;50528;48.514;14.394;2023-05-23T01:39:37;93498.08;;;12.77;71.94
64211;BME280;50528;48.514;14.394;2023-05-23T01:40:11;93498.14;;;12.77;71.92
64211;BME280;50528;48.514;14.394;2023-05-23T01:40:45;93502.55;;;12.79;71.98
64211;BME280;50528;48.514;14.394;2023-05-23T01:41:19;93499.11;;;12.80;72.08
64211;BME280;50528;48.514;14.394;2023-05-23T01:41:53;93500.38;;;12.80;72.03
64211;BME280;50528;48.514;14.394;2023-05-23T01:42:27;93500.29;;;12.80;72.13
64211;BME280;50528;48.514;14.394;2023-05-23T01:43:02;93501.70;;;12.82;72.06
64211;BME280;50528;48.514;14.394;2023-05-23T01:43:36;93504.92;;;12.84;72.15
64211;BME280;50528;48.514;14.394;2023-05-23T01:44:11;93501.95;;;12.84;72.24
64211;BME280;50528;48.514;14.394;2023-05-23T01:44:48;93500.31;;;12.84;72.05
64211;BME280;50528;48.514;14.394;2023-05-23T01:45:25;93500.89;;;12.86;72.16
64211;BME280;50528;48.514;14.394;2023-05-23T01:46:00;93500.83;;;12.87;72.07
64211;BME280;50528;48.514;14.394;2023-05-23T01:46:36;93499.78;;;12.88;72.17
64211;BME280;50528;48.514;14.394;2023-05-23T01:47:12;93497.73;;;12.85;72.16
64211;BME280;50528;48.514;14.394;2023-05-23T01:47:49;93499.16;;;12.89;72.11
64211;BME280;50528;48.514;14.394;2023-05-23T01:48:25;93500.30;;;12.90;72.19
64211;BME280;50528;48.514;14.394;2023-05-23T01:50:43;93499.57;;;12.89;72.10
64211;BME280;50528;48.514;14.394;2023-05-23T01:51:21;93503.10;;;12.85;72.01
64211;BME280;50528;48.514;14.394;2023-05-23T01:51:56;93505.48;;;12.84;71.99
64211;BME280;50528;48.514;14.394;2023-05-23T01:52:30;93501.27;;;12.85;72.19
64211;BME280;50528;48.514;14.394;2023-05-23T01:53:08;93499.63;;;12.85;72.10
64211;BME280;50528;48.514;14.394;2023-05-23T01:53:42;93501.15;;;12.85;72.18
64211;BME280;50528;48.514;14.394;2023-05-23T01:54:16;93499.84;;;12.85;72.19
64211;BME280;50528;48.514;14.394;2023-05-23T01:54:54;93500.46;;;12.86;72.29
64211;BME280;50528;48.514;14.394;2023-05-23T01:55:29;93498.56;;;12.86;72.30
64211;BME280;50528;48.514;14.394;2023-05-23T01:56:04;93500.63;;;12.87;72.32
64211;BME280;50528;48.514;14.394;2023-05-23T01:56:38;93500.58;;;12.87;72.27
64211;BME280;50528;48.514;14.394;2023-05-23T01:57:13;93498.26;;;12.87;72.25
64211;BME280;50528;48.514;14.394;2023-05-23T01:57:50;93499.36;;;12.88;72.24
64211;BME280;50528;48.514;14.394;2023-05-23T01:58:26;93500.31;;;12.88;72.32
64211;BME280;50528;48.514;14.394;2023-05-23T01:58:59;93497.41;;;12.88;72.33
64211;BME280;50528;48.514;14.394;2023-05-23T01:59:35;93499.73;;;12.89;72.37
64211;BME280;50528;48.514;14.394;2023-05-23T02:00:11;93498.73;;;12.90;72.39
64211;BME280;50528;48.514;14.394;2023-05-23T02:00:47;93499.55;;;12.91;72.42
64211;BME280;50528;48.514;14.394;2023-05-23T02:01:21;93499.34;;;12.92;72.46
64211;BME280;50528;48.514;14.394;2023-05-23T02:01:56;93499.52;;;12.93;72.38
64211;BME280;50528;48.514;14.394;2023-05-23T02:02:32;93499.66;;;12.94;72.23
64211;BME280;50528;48.514;14.394;2023-05-23T02:03:06;93497.81;;;12.95;72.33
64211;BME280;50528;48.514;14.394;2023-05-23T02:03:41;93497.55;;;12.95;72.37
64211;BME280;50528;48.514;14.394;2023-05-23T02:04:16;93495.17;;;12.95;72.31
64211;BME280;50528;48.514;14.394;2023-05-23T02:04:52;93496.68;;;12.97;72.28
64211;BME280;50528;48.514;14.394;2023-05-23T02:05:26;93498.80;;;12.98;72.21
64211;BME280;50528;48.514;14.394;2023-05-23T02:06:01;93495.05;;;12.98;72.15
64211;BME280;50528;48.514;14.394;2023-05-23T02:06:34;93498.58;;;12.98;72.16
64211;BME280;50528;48.514;14.394;2023-05-23T02:07:09;93500.33;;;13.00;71.99
64211;BME280;50528;48.514;14.394;2023-05-23T02:07:43;93496.79;;;12.98;72.09
64211;BME280;50528;48.514;14.394;2023-05-23T02:08:16;93499.27;;;12.99;72.15
64211;BME280;50528;48.514;14.394;2023-05-23T02:08:51;93499.76;;;12.99;72.11
64211;BME280;50528;48.514;14.394;2023-05-23T02:09:27;93497.11;;;13.01;72.23
64211;BME280;50528;48.514;14.394;2023-05-23T02:10:02;93495.30;;;13.01;72.21
64211;BME280;50528;48.514;14.394;2023-05-23T02:10:37;93493.62;;;13.02;72.25
64211;BME280;50528;48.514;14.394;2023-05-23T02:11:11;93494.08;;;13.02;72.17
64211;BME280;50528;48.514;14.394;2023-05-23T02:11:45;93494.92;;;13.03;72.17
64211;BME280;50528;48.514;14.394;2023-05-23T02:12:19;93493.86;;;13.04;72.35
64211;BME280;50528;48.514;14.394;2023-05-23T02:12:53;93494.13;;;13.04;72.30
64211;BME280;50528;48.514;14.394;2023-05-23T02:13:27;93492.28;;;13.05;72.35
64211;BME280;50528;48.514;14.394;2023-05-23T02:14:01;93490.59;;;13.06;72.23
64211;BME280;50528;48.514;14.394;2023-05-23T02:14:35;93492.02;;;13.05;72.28
64211;BME280;50528;48.514;14.394;2023-05-23T02:15:10;93492.86;;;13.07;72.28
64211;BME280;50528;48.514;14.394;2023-05-23T02:15:44;93489.86;;;13.06;72.27
64211;BME280;50528;48.514;14.394;2023-05-23T02:16:18;93493.87;;;13.06;72.25
64211;BME280;50528;48.514;14.394;2023-05-23T02:16:53;93491.29;;;13.06;72.09
64211;BME280;50528;48.514;14.394;2023-05-23T02:17:27;93492.34;;;13.06;72.12
64211;BME280;50528;48.514;14.394;2023-05-23T02:18:01;93492.81;;;13.06;72.09
64211;BME280;50528;48.514;14.394;2023-05-23T02:18:39;93493.23;;;13.07;72.02
64211;BME280;50528;48.514;14.394;2023-05-23T02:19:13;93492.50;;;13.07;71.95
64211;BME280;50528;48.514;14.394;2023-05-23T02:19:48;93493.27;;;13.06;71.96
64211;BME280;50528;48.514;14.394;2023-05-23T02:20:23;93492.32;;;13.08;71.86
64211;BME280;50528;48.514;14.394;2023-05-23T02:20:57;93491.86;;;13.07;71.83
64211;BME280;50528;48.514;14.394;2023-05-23T02:21:31;93492.58;;;13.08;71.94
64211;BME280;50528;48.514;14.394;2023-05-23T02:22:08;93494.64;;;13.08;71.86
64211;BME280;50528;48.514;14.394;2023-05-23T02:22:42;93488.73;;;13.06;71.87
64211;BME280;50528;48.514;14.394;2023-05-23T02:23:16;93494.27;;;13.10;71.77
64211;BME280;50528;48.514;14.394;2023-05-23T02:23:50;93492.05;;;13.09;71.85
64211;BME280;50528;48.514;14.394;2023-05-23T02:24:24;93488.52;;;13.09;71.95
64211;BME280;50528;48.514;14.394;2023-05-23T02:24:58;93491.84;;;13.10;71.94
64211;BME280;50528;48.514;14.394;2023-05-23T02:25:32;93488.04;;;13.09;71.96
64211;BME280;50528;48.514;14.394;2023-05-23T02:26:05;93490.20;;;13.10;71.91
64211;BME280;50528;48.514;14.394;2023-05-23T02:26:41;93488.30;;;13.10;71.98
64211;BME280;50528;48.514;14.394;2023-05-23T02:27:15;93488.14;;;13.10;71.95
64211;BME280;50528;48.514;14.394;2023-05-23T02:27:49;93489.20;;;13.09;72.01
64211;BME280;50528;48.514;14.394;2023-05-23T02:28:23;93487.62;;;13.10;72.05
64211;BME280;50528;48.514;14.394;2023-05-23T02:28:57;93489.83;;;13.11;72.07
64211;BME280;50528;48.514;14.394;2023-05-23T02:29:31;93490.10;;;13.11;72.03
64211;BME280;50528;48.514;14.394;2023-05-23T02:30:06;93487.39;;;13.12;72.10
64211;BME280;50528;48.514;14.394;2023-05-23T02:30:40;93487.21;;;13.12;72.06
64211;BME280;50528;48.514;14.394;2023-05-23T02:31:14;93489.02;;;13.13;72.03
64211;BME280;50528;48.514;14.394;2023-05-23T02:31:49;93488.20;;;13.13;72.09
64211;BME280;50528;48.514;14.394;2023-05-23T02:32:27;93489.31;;;13.13;72.10
64211;BME280;50528;48.514;14.394;2023-05-23T02:33:05;93486.05;;;13.13;72.07
64211;BME280;50528;48.514;14.394;2023-05-23T02:33:54;93492.28;;;13.13;72.12
64211;BME280;50528;48.514;14.394;2023-05-23T02:34:55;93489.35;;;13.09;71.96
64211;BME280;50528;48.514;14.394;2023-05-23T02:35:32;93490.46;;;13.08;72.00
64211;BME280;50528;48.514;14.394;2023-05-23T02:36:06;93491.78;;;13.09;72.11
64211;BME280;50528;48.514;14.394;2023-05-23T02:36:40;93492.42;;;13.10;72.16
64211;BME280;50528;48.514;14.394;2023-05-23T02:37:15;93493.05;;;13.10;72.08
64211;BME280;50528;48.514;14.394;2023-05-23T02:37:49;93492.96;;;13.11;72.13
64211;BME280;50528;48.514;14.394;2023-05-23T02:38:24;93492.39;;;13.12;71.99
64211;BME280;50528;48.514;14.394;2023-05-23T02:38:59;93491.89;;;13.11;71.83
64211;BME280;50528;48.514;14.394;2023-05-23T02:39:34;93491.42;;;13.11;71.78
64211;BME280;50528;48.514;14.394;2023-05-23T02:40:08;93493.06;;;13.11;71.78
64211;BME280;50528;48.514;14.394;2023-05-23T02:40:42;93494.27;;;13.11;71.75
64211;BME280;50528;48.514;14.394;2023-05-23T02:41:16;93496.02;;;13.11;71.77
64211;BME280;50528;48.514;14.394;2023-05-23T02:41:51;93495.80;;;13.10;71.81
64211;BME280;50528;48.514;14.394;2023-05-23T02:42:25;93493.69;;;13.10;71.75
64211;BME280;50528;48.514;14.394;2023-05-23T02:42:59;93494.38;;;13.10;71.63
64211;BME280;50528;48.514;14.394;2023-05-23T02:43:33;93494.69;;;13.10;71.72
64211;BME280;50528;48.514;14.394;2023-05-23T02:44:07;93495.69;;;13.11;71.74
64211;BME280;50528;48.514;14.394;2023-05-23T02:44:41;93495.75;;;13.10;71.66
64211;BME280;50528;48.514;14.394;2023-05-23T02:45:15;93497.85;;;13.10;71.73
64211;BME280;50528;48.514;14.394;2023-05-23T02:45:50;93495.43;;;13.10;71.69
64211;BME280;50528;48.514;14.394;2023-05-23T02:46:24;93494.95;;;13.10;71.62
64211;BME280;50528;48.514;14.394;2023-05-23T02:46:58;93495.06;;;13.10;71.54
64211;BME280;50528;48.514;14.394;2023-05-23T02:47:32;93495.74;;;13.10;71.67
64211;BME280;50528;48.514;14.394;2023-05-23T02:48:06;93495.22;;;13.10;71.78
64211;BME280;50528;48.514;14.394;2023-05-23T02:48:41;93492.95;;;13.09;71.68
64211;BME280;50528;48.514;14.394;2023-05-23T02:49:15;93497.80;;;13.10;71.84
64211;BME280;50528;48.514;14.394;2023-05-23T02:49:50;93494.33;;;13.08;71.82
64211;BME280;50528;48.514;14.394;2023-05-23T02:50:24;93497.91;;;13.09;71.91
64211;BME280;50528;48.514;14.394;2023-05-23T02:50:58;93498.54;;;13.08;71.82
64211;BME280;50528;48.514;14.394;2023-05-23T02:51:33;93495.66;;;13.07;71.85
64211;BME280;50528;48.514;14.394;2023-05-23T02:52:07;93495.52;;;13.07;71.98
64211;BME280;50528;48.514;14.394;2023-05-23T02:52:41;93494.77;;;13.07;71.84
64211;BME280;50528;48.514;14.394;2023-05-23T02:53:15;93496.91;;;13.08;72.01
64211;BME280;50528;48.514;14.394;2023-05-23T02:53:49;93492.23;;;13.07;72.01
64211;BME280;50528;48.514;14.394;2023-05-23T02:54:24;93497.35;;;13.06;72.07
64211;BME280;50528;48.514;14.394;2023-05-23T02:54:58;93495.35;;;13.07;71.98
64211;BME280;50528;48.514;14.394;2023-05-23T02:55:35;93495.77;;;13.06;72.00
64211;BME280;50528;48.514;14.394;2023-05-23T02:56:09;93497.71;;;13.07;72.13
64211;BME280;50528;48.514;14.394;2023-05-23T02:56:44;93497.45;;;13.07;72.20
64211;BME280;50528;48.514;14.394;2023-05-23T02:57:18;93495.98;;;13.07;72.04
64211;BME280;50528;48.514;14.394;2023-05-23T02:57:52;93498.35;;;13.07;72.23
64211;BME280;50528;48.514;14.394;2023-05-23T02:58:26;93498.20;;;13.07;72.10
64211;BME280;50528;48.514;14.394;2023-05-23T02:59:00;93491.71;;;13.04;72.16
64211;BME280;50528;48.514;14.394;2023-05-23T02:59:34;93492.38;;;13.07;72.28
64211;BME280;50528;48.514;14.394;2023-05-23T03:00:11;93493.23;;;13.08;72.08
64211;BME280;50528;48.514;14.394;2023-05-23T03:00:46;93493.90;;;13.08;72.25
64211;BME280;50528;48.514;14.394;2023-05-23T03:01:20;93492.91;;;13.07;72.33
64211;BME280;50528;48.514;14.394;2023-05-23T03:01:54;93495.08;;;13.07;72.17
64211;BME280;50528;48.514;14.394;2023-05-23T03:02:28;93497.34;;;13.07;72.27
64211;BME280;50528;48.514;14.394;2023-05-23T03:03:03;93488.71;;;13.04;72.29
64211;BME280;50528;48.514;14.394;2023-05-23T03:03:37;93492.50;;;13.07;72.21
64211;BME280;50528;48.514;14.394;2023-05-23T03:04:11;93497.25;;;13.07;72.24
64211;BME280;50528;48.514;14.394;2023-05-23T03:04:46;93490.65;;;13.05;72.11
64211;BME280;50528;48.514;14.394;2023-05-23T03:05:20;93491.98;;;13.06;72.09
64211;BME280;50528;48.514;14.394;2023-05-23T03:05:54;93492.23;;;13.04;72.18
64211;BME280;50528;48.514;14.394;2023-05-23T03:06:28;93496.35;;;13.06;72.05
64211;BME280;50528;48.514;14.394;2023-05-23T03:07:05;93491.81;;;13.06;72.17
64211;BME280;50528;48.514;14.394;2023-05-23T03:07:49;93489.11;;;13.04;72.01
64211;BME280;50528;48.514;14.394;2023-05-23T03:08:25;93492.02;;;13.03;72.01
64211;BME280;50528;48.514;14.394;2023-05-23T03:09:00;93492.02;;;13.03;72.01
64211;BME280;50528;48.514;14.394;2023-05-23T03:09:34;93490.48;;;13.02;71.95
64211;BME280;50528;48.514;14.394;2023-05-23T03:10:08;93489.85;;;13.03;71.99
64211;BME280;50528;48.514;14.394;2023-05-23T03:10:43;93490.38;;;13.03;71.90
64211;BME280;50528;48.514;14.394;2023-05-23T03:11:17;93490.17;;;13.03;71.94
64211;BME280;50528;48.514;14.394;2023-05-23T03:11:51;93486.48;;;13.04;71.89
64211;BME280;50528;48.514;14.394;2023-05-23T03:12:27;93478.96;;;12.98;71.93
64211;BME280;50528;48.514;14.394;2023-05-23T03:13:01;93490.70;;;13.04;71.91
64211;BME280;50528;48.514;14.394;2023-05-23T03:13:35;93492.34;;;13.04;71.96
64211;BME280;50528;48.514;14.394;2023-05-23T03:14:09;93489.75;;;13.04;72.01
64211;BME280;50528;48.514;14.394;2023-05-23T03:14:43;93490.86;;;13.04;71.94
64211;BME280;50528;48.514;14.394;2023-05-23T03:15:16;93487.48;;;13.03;71.88
64211;BME280;50528;48.514;14.394;2023-05-23T03:15:51;93486.58;;;13.04;71.92
64211;BME280;50528;48.514;14.394;2023-05-23T03:16:25;93486.33;;;13.05;71.99
64211;BME280;50528;48.514;14.394;2023-05-23T03:16:59;93485.64;;;13.05;72.00
64211;BME280;50528;48.514;14.394;2023-05-23T03:17:35;93484.42;;;13.05;72.03
64211;BME280;50528;48.514;14.394;2023-05-23T03:18:09;93484.95;;;13.05;72.00
64211;BME280;50528;48.514;14.394;2023-05-23T03:18:43;93485.11;;;13.05;72.00
64211;BME280;50528;48.514;14.394;2023-05-23T03:19:17;93484.27;;;13.05;71.94
64211;BME280;50528;48.514;14.394;2023-05-23T03:19:51;93487.02;;;13.05;72.02
64211;BME280;50528;48.514;14.394;2023-05-23T03:20:25;93487.06;;;13.05;71.91
64211;BME280;50528;48.514;14.394;2023-05-23T03:20:59;93487.22;;;13.05;71.98
64211;BME280;50528;48.514;14.394;2023-05-23T03:21:34;93483.80;;;13.03;71.95
64211;BME280;50528;48.514;14.394;2023-05-23T03:22:07;93483.16;;;13.04;72.02
64211;BME280;50528;48.514;14.394;2023-05-23T03:22:41;93484.95;;;13.03;71.98
64211;BME280;50528;48.514;14.394;2023-05-23T03:23:23;93482.16;;;13.02;71.96
64211;BME280;50528;48.514;14.394;2023-05-23T03:23:56;93485.17;;;13.00;71.86
64211;BME280;50528;48.514;14.394;2023-05-23T03:24:31;93484.71;;;12.99;71.94
64211;BME280;50528;48.514;14.394;2023-05-23T03:25:05;93486.56;;;12.99;71.95
64211;BME280;50528;48.514;14.394;2023-05-23T03:25:39;93485.61;;;12.98;71.95